Time;durP1;ratioP1;P1;durP2;ratioP2;P2;SDS_P1;SDS_P2;PMS_P1;PMS_P2;Temp;Humidity;BMP_temperature;BMP_pressure;BME280_temperature;BME280_humidity;BME280_pressure;Samples;Min_cycle;Max_cycle;Signal;HPM_P1;HPM_P2
2023/04/20 00:01:54;;;;;;;3.90;3.50;;;;;;;;;;5001172;28;20589;-86
2023/04/20 00:04:22;;;;;;;3.25;2.92;;;;;;;;;;4999107;28;20579;-85
2023/04/20 00:06:53;;;;;;;3.45;2.58;;;;;;;;;;4980739;28;20234;-85
2023/04/20 00:09:20;;;;;;;3.05;2.75;;;;;;;;;;4980687;28;20235;-84
2023/04/20 00:11:48;;;;;;;4.82;2.97;;;;;;;;;;4981955;28;20258;-85
2023/04/20 00:14:15;;;;;;;7.55;3.05;;;;;;;;;;4984692;28;20206;-86
2023/04/20 00:16:43;;;;;;;3.45;3.13;;;;;;;;;;4992739;28;20224;-85
2023/04/20 00:19:11;;;;;;;4.68;3.30;;;;;;;;;;4980143;28;20224;-86
2023/04/20 00:21:40;;;;;;;4.05;3.50;;;;;;;;;;4980662;28;20200;-85
2023/04/20 00:24:08;;;;;;;4.28;3.60;;;;;;;;;;4981025;28;20303;-86
2023/04/20 00:26:35;;;;;;;3.67;3.05;;;;;;;;;;4981242;28;20284;-85
2023/04/20 00:29:03;;;;;;;6.20;3.50;;;;;;;;;;4980423;28;20735;-85
2023/04/20 00:31:32;;;;;;;4.10;3.33;;;;;;;;;;4980675;28;20224;-85
2023/04/20 00:33:59;;;;;;;3.58;3.25;;;;;;;;;;4981155;28;20664;-85
2023/04/20 00:36:27;;;;;;;3.40;3.10;;;;;;;;;;4980339;28;20553;-84
2023/04/20 00:38:55;;;;;;;4.13;3.50;;;;;;;;;;4981084;28;20358;-85
2023/04/20 00:41:23;;;;;;;3.35;3.05;;;;;;;;;;4980357;28;20264;-85
2023/04/20 00:43:52;;;;;;;5.45;3.65;;;;;;;;;;4990852;28;20621;-84
2023/04/20 00:46:19;;;;;;;3.60;3.30;;;;;;;;;;4998149;28;20200;-85
2023/04/20 00:48:47;;;;;;;4.43;4.00;;;;;;;;;;4982736;28;20574;-85
2023/04/20 00:51:15;;;;;;;3.50;3.17;;;;;;;;;;4983263;28;20255;-85
2023/04/20 00:53:42;;;;;;;4.13;3.72;;;;;;;;;;4983546;28;20584;-85
2023/04/20 00:56:13;;;;;;;3.45;2.90;;;;;;;;;;4982310;28;20723;-85
2023/04/20 00:58:41;;;;;;;3.42;3.10;;;;;;;;;;4997526;28;20303;-85
2023/04/20 01:01:08;;;;;;;3.72;3.40;;;;;;;;;;5000394;28;20202;-85
2023/04/20 01:03:36;;;;;;;4.40;3.83;;;;;;;;;;5000855;28;20226;-86
2023/04/20 01:06:06;;;;;;;4.32;3.83;;;;;;;;;;5000330;28;20200;-86
2023/04/20 01:08:33;;;;;;;3.80;3.50;;;;;;;;;;4999541;28;20306;-86
2023/04/20 01:11:01;;;;;;;5.45;3.55;;;;;;;;;;4999758;28;20230;-85
2023/04/20 01:13:30;;;;;;;2.75;2.53;;;;;;;;;;5001810;28;20223;-85
2023/04/20 01:16:00;;;;;;;4.80;3.30;;;;;;;;;;5000970;28;20239;-86
2023/04/20 01:18:27;;;;;;;3.90;3.22;;;;;;;;;;4979902;28;20637;-84
2023/04/20 01:20:55;;;;;;;4.50;3.42;;;;;;;;;;4980215;28;20243;-85
2023/04/20 01:23:23;;;;;;;3.40;3.05;;;;;;;;;;4981667;28;20228;-85
2023/04/20 01:25:51;;;;;;;5.22;4.57;;;;;;;;;;4980613;28;20199;-85
2023/04/20 01:28:18;;;;;;;4.63;3.58;;;;;;;;;;4979881;28;20227;-86
2023/04/20 01:30:46;;;;;;;6.25;3.35;;;;;;;;;;4979971;28;20315;-86
2023/04/20 01:33:14;;;;;;;4.00;3.63;;;;;;;;;;4984686;28;20271;-86
2023/04/20 01:35:43;;;;;;;3.92;3.13;;;;;;;;;;4997287;28;20235;-85
2023/04/20 01:38:10;;;;;;;5.32;3.90;;;;;;;;;;4997420;28;20291;-86
2023/04/20 01:40:40;;;;;;;5.00;3.90;;;;;;;;;;4993248;28;20259;-85
2023/04/20 01:43:07;;;;;;;3.65;3.30;;;;;;;;;;4998043;28;20598;-85
2023/04/20 01:45:34;;;;;;;4.30;3.90;;;;;;;;;;4997562;28;20223;-85
2023/04/20 01:48:02;;;;;;;4.03;3.53;;;;;;;;;;4998538;28;20322;-86
2023/04/20 01:50:30;;;;;;;3.55;3.10;;;;;;;;;;4997644;28;20263;-84
2023/04/20 01:52:57;;;;;;;4.22;3.78;;;;;;;;;;4996457;28;20678;-85
2023/04/20 01:55:25;;;;;;;4.55;4.00;;;;;;;;;;4997069;28;20659;-87
2023/04/20 01:57:54;;;;;;;5.63;3.42;;;;;;;;;;4996608;28;20262;-86
2023/04/20 02:00:21;;;;;;;3.92;3.53;;;;;;;;;;4996869;28;20676;-86
2023/04/20 02:02:49;;;;;;;3.92;3.65;;;;;;;;;;4997278;28;20203;-85
2023/04/20 02:05:16;;;;;;;4.32;3.92;;;;;;;;;;4997462;28;20203;-86
2023/04/20 02:07:44;;;;;;;4.03;3.60;;;;;;;;;;4996687;28;20308;-86
2023/04/20 02:10:12;;;;;;;4.47;3.53;;;;;;;;;;4995798;28;20208;-86
2023/04/20 02:12:39;;;;;;;3.60;3.30;;;;;;;;;;4998050;28;20227;-86
2023/04/20 02:15:09;;;;;;;3.92;3.30;;;;;;;;;;5002042;28;20775;-86
2023/04/20 02:17:37;;;;;;;3.75;3.40;;;;;;;;;;5002430;28;20238;-87
2023/04/20 02:20:06;;;;;;;4.13;3.60;;;;;;;;;;5004362;28;20226;-86
2023/04/20 02:22:34;;;;;;;6.18;3.42;;;;;;;;;;5003542;28;20196;-86
2023/04/20 02:25:03;;;;;;;3.35;3.15;;;;;;;;;;5004229;28;20380;-85
2023/04/20 02:27:31;;;;;;;3.53;3.22;;;;;;;;;;5002519;28;20315;-87
2023/04/20 02:29:58;;;;;;;4.05;3.58;;;;;;;;;;5003035;28;20652;-87
2023/04/20 02:32:28;;;;;;;3.33;3.03;;;;;;;;;;5002762;28;20445;-87
2023/04/20 02:34:55;;;;;;;3.80;3.42;;;;;;;;;;5001905;28;20213;-87
2023/04/20 02:37:23;;;;;;;3.05;2.70;;;;;;;;;;4996326;28;20236;-86
2023/04/20 02:39:50;;;;;;;4.82;3.63;;;;;;;;;;4983127;28;20264;-87
2023/04/20 02:42:18;;;;;;;3.20;2.88;;;;;;;;;;4982517;28;20503;-87
2023/04/20 02:44:45;;;;;;;4.35;3.13;;;;;;;;;;4982263;28;20201;-86
2023/04/20 02:47:13;;;;;;;3.80;3.03;;;;;;;;;;4982143;28;20262;-86
2023/04/20 02:49:41;;;;;;;3.35;2.72;;;;;;;;;;4981135;28;20228;-86
2023/04/20 02:52:09;;;;;;;4.03;3.35;;;;;;;;;;4993320;28;20590;-87
2023/04/20 02:54:36;;;;;;;3.38;3.08;;;;;;;;;;4999111;28;20200;-86
2023/04/20 02:57:05;;;;;;;2.88;2.67;;;;;;;;;;4996845;28;20282;-86
2023/04/20 02:59:32;;;;;;;2.83;2.63;;;;;;;;;;4995254;28;20286;-87
2023/04/20 03:02:00;;;;;;;3.40;3.13;;;;;;;;;;4998219;28;20287;-86
2023/04/20 03:04:29;;;;;;;3.38;3.08;;;;;;;;;;4995745;28;20290;-86
2023/04/20 03:06:59;;;;;;;3.53;3.25;;;;;;;;;;4995478;28;20238;-87
2023/04/20 03:09:26;;;;;;;2.60;2.40;;;;;;;;;;4997707;28;20237;-86
2023/04/20 03:11:54;;;;;;;3.30;3.05;;;;;;;;;;4997565;28;20672;-86
2023/04/20 03:14:22;;;;;;;2.58;2.38;;;;;;;;;;4997828;28;20290;-86
2023/04/20 03:16:50;;;;;;;3.28;2.97;;;;;;;;;;4979056;28;20637;-86
2023/04/20 03:19:17;;;;;;;2.67;2.47;;;;;;;;;;4977467;28;20205;-85
2023/04/20 03:21:45;;;;;;;2.80;2.60;;;;;;;;;;4978688;28;20300;-86
2023/04/20 03:24:15;;;;;;;2.47;2.38;;;;;;;;;;4978896;28;20308;-85
2023/04/20 03:26:42;;;;;;;2.92;2.72;;;;;;;;;;4978769;28;20200;-85
2023/04/20 03:29:10;;;;;;;2.90;2.35;;;;;;;;;;4984291;28;20302;-86
2023/04/20 03:31:37;;;;;;;2.10;2.00;;;;;;;;;;4997690;28;20218;-83
2023/04/20 03:34:05;;;;;;;2.20;2.10;;;;;;;;;;4998417;28;20211;-86
2023/04/20 03:36:33;;;;;;;2.30;2.10;;;;;;;;;;4999295;28;20200;-85
2023/04/20 03:39:00;;;;;;;2.28;2.08;;;;;;;;;;4997833;28;20575;-85
2023/04/20 03:41:30;;;;;;;1.90;1.80;;;;;;;;;;4998135;28;20264;-85
2023/04/20 03:44:00;;;;;;;1.60;1.55;;;;;;;;;;4995442;28;20210;-85
2023/04/20 03:46:28;;;;;;;1.85;1.75;;;;;;;;;;4995737;28;20303;-85
2023/04/20 03:48:55;;;;;;;1.73;1.63;;;;;;;;;;4995977;28;20242;-84
2023/04/20 03:51:23;;;;;;;1.73;1.63;;;;;;;;;;4997206;28;20218;-86
2023/04/20 03:53:51;;;;;;;1.63;1.50;;;;;;;;;;5000561;28;20782;-84
2023/04/20 03:56:18;;;;;;;1.65;1.55;;;;;;;;;;4999370;28;20192;-86
2023/04/20 03:58:47;;;;;;;1.60;1.50;;;;;;;;;;4998259;28;20314;-85
2023/04/20 04:01:15;;;;;;;1.23;1.20;;;;;;;;;;4998765;28;20210;-86
2023/04/20 04:03:42;;;;;;;1.70;1.60;;;;;;;;;;4996280;28;20206;-86
2023/04/20 04:06:11;;;;;;;1.58;1.50;;;;;;;;;;4980602;28;20300;-85
2023/04/20 04:08:39;;;;;;;1.50;1.40;;;;;;;;;;4979489;28;20251;-85
2023/04/20 04:11:06;;;;;;;1.02;1.02;;;;;;;;;;4979274;28;20200;-85
2023/04/20 04:13:34;;;;;;;1.13;1.13;;;;;;;;;;4979433;28;20230;-85
2023/04/20 04:16:03;;;;;;;1.50;1.40;;;;;;;;;;4997976;28;20231;-86
2023/04/20 04:18:32;;;;;;;1.13;1.13;;;;;;;;;;4977348;28;20722;-84
2023/04/20 04:20:59;;;;;;;1.10;1.10;;;;;;;;;;4980486;28;20209;-85
2023/04/20 04:23:27;;;;;;;1.10;1.10;;;;;;;;;;4978801;28;20289;-84
2023/04/20 04:25:57;;;;;;;0.95;0.95;;;;;;;;;;4997145;28;20282;-85
2023/04/20 04:28:25;;;;;;;1.20;1.10;;;;;;;;;;4998735;28;20270;-86
2023/04/20 04:30:53;;;;;;;1.33;1.23;;;;;;;;;;5008127;28;20204;-87
2023/04/20 04:33:22;;;;;;;1.40;1.30;;;;;;;;;;5006038;28;20237;-86
2023/04/20 04:35:49;;;;;;;1.60;1.50;;;;;;;;;;4983696;28;20232;-86
2023/04/20 04:38:17;;;;;;;1.80;1.70;;;;;;;;;;4985510;28;20244;-86
2023/04/20 04:40:45;;;;;;;3.17;2.20;;;;;;;;;;4984698;28;20283;-85
2023/04/20 04:43:13;;;;;;;2.40;2.10;;;;;;;;;;4984711;28;20211;-86
2023/04/20 04:45:41;;;;;;;1.40;1.30;;;;;;;;;;4986401;28;20628;-86
2023/04/20 04:48:10;;;;;;;1.50;1.40;;;;;;;;;;4986451;28;20716;-86
2023/04/20 04:50:39;;;;;;;1.67;1.55;;;;;;;;;;4986447;28;20868;-85
2023/04/20 04:53:07;;;;;;;1.65;1.55;;;;;;;;;;4985002;28;20247;-86
2023/04/20 04:55:35;;;;;;;1.60;1.50;;;;;;;;;;4984425;28;20287;-85
2023/04/20 04:58:02;;;;;;;1.45;1.35;;;;;;;;;;4984940;28;20560;-87
2023/04/20 05:00:30;;;;;;;1.60;1.50;;;;;;;;;;4986038;28;20295;-87
2023/04/20 05:02:57;;;;;;;1.48;1.38;;;;;;;;;;4983968;28;20283;-87
2023/04/20 05:05:25;;;;;;;1.40;1.30;;;;;;;;;;4998092;28;20200;-86
2023/04/20 05:07:54;;;;;;;1.05;1.05;;;;;;;;;;5003319;28;20254;-87
2023/04/20 05:10:21;;;;;;;1.63;1.52;;;;;;;;;;5001863;28;20668;-79
2023/04/20 05:12:51;;;;;;;1.73;1.63;;;;;;;;;;4996103;28;20686;-81
2023/04/20 05:15:18;;;;;;;1.35;1.25;;;;;;;;;;4985704;28;20573;-81
2023/04/20 05:17:48;;;;;;;1.20;1.20;;;;;;;;;;4976531;28;20720;-80
2023/04/20 05:20:15;;;;;;;3.22;2.10;;;;;;;;;;4976141;28;20204;-81
2023/04/20 05:22:43;;;;;;;2.22;2.03;;;;;;;;;;4977174;28;20290;-82
2023/04/20 05:25:12;;;;;;;2.03;1.92;;;;;;;;;;4987501;28;20195;-81
2023/04/20 05:27:40;;;;;;;1.88;1.77;;;;;;;;;;4995578;28;20770;-79
2023/04/20 05:30:09;;;;;;;1.60;1.50;;;;;;;;;;4978656;28;20676;-81
2023/04/20 05:32:36;;;;;;;1.63;1.52;;;;;;;;;;4995450;28;20211;-81
2023/04/20 05:35:04;;;;;;;3.10;2.53;;;;;;;;;;4994791;28;20212;-80
2023/04/20 05:37:34;;;;;;;2.50;2.30;;;;;;;;;;4995681;28;20234;-80
2023/04/20 05:40:01;;;;;;;2.80;2.60;;;;;;;;;;4994994;28;20204;-81
2023/04/20 05:42:30;;;;;;;2.67;2.47;;;;;;;;;;4996883;28;20207;-81
2023/04/20 05:44:57;;;;;;;2.80;2.60;;;;;;;;;;4996076;28;20290;-81
2023/04/20 05:47:26;;;;;;;2.60;2.38;;;;;;;;;;4989032;28;20742;-81
2023/04/20 05:49:54;;;;;;;2.97;2.38;;;;;;;;;;5057342;23;20609;-82
2023/04/20 05:52:21;;;;;;;2.83;2.63;;;;;;;;;;5037430;28;20209;-83
2023/04/20 05:54:49;;;;;;;3.17;2.97;;;;;;;;;;5033539;28;20211;-82
2023/04/20 05:57:16;;;;;;;2.30;2.20;;;;;;;;;;5017557;28;20275;-83
2023/04/20 05:59:45;;;;;;;2.70;1.95;;;;;;;;;;5015800;28;20251;-84
2023/04/20 06:02:13;;;;;;;2.90;2.70;;;;;;;;;;5015411;28;20286;-84
2023/04/20 06:04:41;;;;;;;2.60;2.40;;;;;;;;;;5021511;28;20725;-83
2023/04/20 06:07:08;;;;;;;2.70;2.50;;;;;;;;;;5033659;28;20205;-84
2023/04/20 06:09:36;;;;;;;2.50;2.30;;;;;;;;;;5033482;28;20601;-83
2023/04/20 06:12:03;;;;;;;3.25;2.95;;;;;;;;;;5033512;28;20212;-83
2023/04/20 06:14:31;;;;;;;3.60;3.30;;;;;;;;;;5025717;28;20306;-83
2023/04/20 06:17:00;;;;;;;2.92;2.70;;;;;;;;;;5014248;28;20245;-83
2023/04/20 06:19:28;;;;;;;3.03;2.83;;;;;;;;;;5023785;28;20664;-83
2023/04/20 06:21:56;;;;;;;3.05;2.70;;;;;;;;;;5048398;28;20568;-83
2023/04/20 06:24:23;;;;;;;3.10;2.80;;;;;;;;;;5045860;28;20229;-84
2023/04/20 06:26:51;;;;;;;3.25;3.05;;;;;;;;;;5035719;28;20665;-83
2023/04/20 06:29:19;;;;;;;3.15;2.75;;;;;;;;;;5034154;28;20662;-83
2023/04/20 06:31:46;;;;;;;3.25;2.95;;;;;;;;;;5033132;28;20645;-83
2023/04/20 06:34:15;;;;;;;2.50;2.30;;;;;;;;;;5039695;28;20220;-83
2023/04/20 06:36:43;;;;;;;2.35;2.20;;;;;;;;;;5037034;28;20288;-84
2023/04/20 06:39:11;;;;;;;3.78;3.47;;;;;;;;;;5054852;28;20217;-83
2023/04/20 06:41:38;;;;;;;3.35;3.05;;;;;;;;;;5053769;28;20546;-84
2023/04/20 06:44:06;;;;;;;2.80;2.60;;;;;;;;;;5048432;28;20249;-82
2023/04/20 06:46:34;;;;;;;2.80;2.60;;;;;;;;;;5032982;28;20212;-83
2023/04/20 06:49:01;;;;;;;2.83;2.63;;;;;;;;;;5024107;28;20297;-83
2023/04/20 06:51:31;;;;;;;3.47;2.95;;;;;;;;;;5012845;28;20289;-83
2023/04/20 06:53:59;;;;;;;3.60;3.30;;;;;;;;;;5012962;28;20225;-83
2023/04/20 06:56:26;;;;;;;3.42;3.13;;;;;;;;;;5013059;28;20237;-83
2023/04/20 06:58:54;;;;;;;4.15;3.75;;;;;;;;;;5012164;28;20310;-82
2023/04/20 07:01:21;;;;;;;5.28;2.90;;;;;;;;;;5028878;28;20194;-83
2023/04/20 07:03:49;;;;;;;3.42;3.13;;;;;;;;;;5031682;28;20666;-82
2023/04/20 07:06:16;;;;;;;3.90;2.90;;;;;;;;;;5012445;28;20267;-83
2023/04/20 07:08:45;;;;;;;3.50;3.05;;;;;;;;;;5012441;28;20402;-84
2023/04/20 07:11:13;;;;;;;3.08;2.88;;;;;;;;;;5012143;28;20203;-84
2023/04/20 07:13:40;;;;;;;3.22;3.03;;;;;;;;;;5012162;28;20293;-85
2023/04/20 07:16:08;;;;;;;3.95;2.85;;;;;;;;;;5012515;28;20742;-83
2023/04/20 07:18:37;;;;;;;4.07;3.47;;;;;;;;;;5016914;28;20230;-83
2023/04/20 07:21:05;;;;;;;3.85;3.30;;;;;;;;;;5030618;28;20690;-83
2023/04/20 07:23:32;;;;;;;4.10;3.60;;;;;;;;;;5011918;28;20394;-83
2023/04/20 07:26:01;;;;;;;3.53;2.85;;;;;;;;;;5013790;28;20234;-84
2023/04/20 07:28:29;;;;;;;2.95;2.70;;;;;;;;;;5024423;28;20305;-83
2023/04/20 07:30:56;;;;;;;3.58;3.22;;;;;;;;;;5035863;28;20210;-83
2023/04/20 07:33:24;;;;;;;3.08;2.78;;;;;;;;;;5036409;28;20209;-84
2023/04/20 07:35:51;;;;;;;2.95;2.65;;;;;;;;;;5035921;28;20226;-83
2023/04/20 07:38:19;;;;;;;4.65;3.63;;;;;;;;;;5028955;28;20850;-84
2023/04/20 07:40:46;;;;;;;3.53;3.20;;;;;;;;;;5015701;28;20206;-84
2023/04/20 07:43:15;;;;;;;3.47;3.17;;;;;;;;;;5015567;28;20286;-84
2023/04/20 07:45:42;;;;;;;3.40;3.08;;;;;;;;;;5015962;28;20285;-83
2023/04/20 07:48:11;;;;;;;3.35;3.00;;;;;;;;;;5018118;28;20226;-83
2023/04/20 07:50:38;;;;;;;2.83;2.63;;;;;;;;;;5015797;28;20202;-83
2023/04/20 07:53:06;;;;;;;3.58;3.28;;;;;;;;;;5015460;28;20206;-83
2023/04/20 07:55:33;;;;;;;3.20;2.90;;;;;;;;;;5015342;28;20794;-83
2023/04/20 07:58:01;;;;;;;3.50;3.20;;;;;;;;;;5018348;28;20267;-83
2023/04/20 08:00:30;;;;;;;3.90;3.50;;;;;;;;;;5035486;28;20661;-83
2023/04/20 08:02:58;;;;;;;3.03;2.83;;;;;;;;;;5035271;28;20641;-82
2023/04/20 08:05:25;;;;;;;3.28;3.00;;;;;;;;;;5035144;28;20659;-85
2023/04/20 08:07:53;;;;;;;2.97;2.78;;;;;;;;;;5033312;28;20218;-83
2023/04/20 08:10:21;;;;;;;3.50;3.20;;;;;;;;;;5030425;28;20773;-83
2023/04/20 08:12:48;;;;;;;3.75;3.45;;;;;;;;;;5033621;28;20237;-82
2023/04/20 08:15:16;;;;;;;3.63;3.33;;;;;;;;;;5033868;28;20223;-79
2023/04/20 08:17:45;;;;;;;4.95;4.45;;;;;;;;;;5034062;28;20203;-81
2023/04/20 08:20:12;;;;;;;4.88;4.43;;;;;;;;;;5033272;28;20210;-80
2023/04/20 08:22:40;;;;;;;4.55;4.15;;;;;;;;;;5028881;28;20508;-79
2023/04/20 08:25:08;;;;;;;4.25;3.85;;;;;;;;;;5035076;28;20229;-82
2023/04/20 08:27:36;;;;;;;4.68;4.28;;;;;;;;;;5037041;28;20183;-84
2023/04/20 08:30:04;;;;;;;4.70;4.25;;;;;;;;;;5054853;28;20254;-83
2023/04/20 08:32:31;;;;;;;4.50;4.10;;;;;;;;;;5055183;28;20198;-82
2023/04/20 08:35:00;;;;;;;5.72;4.63;;;;;;;;;;5052355;28;20265;-82
2023/04/20 08:37:28;;;;;;;5.18;4.68;;;;;;;;;;5053658;28;20290;-79
2023/04/20 08:39:55;;;;;;;4.38;3.97;;;;;;;;;;5033995;28;20257;-83
2023/04/20 08:42:23;;;;;;;5.47;4.97;;;;;;;;;;5026861;28;20226;-83
2023/04/20 08:44:50;;;;;;;5.70;4.90;;;;;;;;;;5024020;28;20226;-85
2023/04/20 08:47:18;;;;;;;8.00;5.43;;;;;;;;;;5032690;28;20250;-86
2023/04/20 08:49:45;;;;;;;6.45;4.97;;;;;;;;;;5024704;28;20318;-84
2023/04/20 08:52:14;;;;;;;7.63;6.93;;;;;;;;;;5018938;28;20644;-81
2023/04/20 08:54:42;;;;;;;6.03;5.05;;;;;;;;;;5019109;28;20210;-84
2023/04/20 08:57:10;;;;;;;6.90;6.20;;;;;;;;;;5018378;28;20282;-85
2023/04/20 08:59:38;;;;;;;6.70;6.00;;;;;;;;;;5018334;28;20302;-80
2023/04/20 09:02:11;;;;;;;6.45;5.80;;;;;;;;;;5019284;28;20640;-83
2023/04/20 09:04:39;;;;;;;7.32;6.50;;;;;;;;;;5019398;28;20207;-83
2023/04/20 09:07:18;;;;;;;6.88;5.43;;;;;;;;;;5019327;28;20227;-83
2023/04/20 09:09:55;;;;;;;6.70;6.00;;;;;;;;;;5035143;28;20233;-85
2023/04/20 09:12:23;;;;;;;7.20;6.22;;;;;;;;;;5039559;28;20212;-85
2023/04/20 09:14:51;;;;;;;5.95;5.43;;;;;;;;;;5040243;28;20205;-85
2023/04/20 09:17:30;;;;;;;6.68;6.03;;;;;;;;;;5037315;28;20252;-81
2023/04/20 09:19:57;;;;;;;6.63;5.95;;;;;;;;;;5020716;28;20254;-83
2023/04/20 09:22:33;;;;;;;8.85;7.93;;;;;;;;;;5019005;28;20594;-84
2023/04/20 09:25:00;;;;;;;9.63;7.95;;;;;;;;;;5017981;28;20201;-83
2023/04/20 09:27:28;;;;;;;7.72;6.93;;;;;;;;;;5018251;28;20652;-84
2023/04/20 09:29:59;;;;;;;6.70;5.95;;;;;;;;;;5018573;28;20251;-83
2023/04/20 09:32:28;;;;;;;8.15;7.35;;;;;;;;;;5018756;28;20203;-84
2023/04/20 09:34:56;;;;;;;8.82;6.95;;;;;;;;;;5018078;28;20226;-82
2023/04/20 09:37:24;;;;;;;6.45;5.75;;;;;;;;;;5018090;28;20287;-83
2023/04/20 09:39:58;;;;;;;7.57;6.82;;;;;;;;;;5017884;28;20217;-83
2023/04/20 09:42:28;;;;;;;9.27;6.97;;;;;;;;;;5018959;28;20194;-82
2023/04/20 09:44:56;;;;;;;8.40;6.72;;;;;;;;;;5013646;28;20201;-82
2023/04/20 09:47:26;;;;;;;8.00;6.97;;;;;;;;;;5017237;28;20311;-81
2023/04/20 09:49:54;;;;;;;7.18;6.32;;;;;;;;;;5017366;28;20402;-82
2023/04/20 09:52:22;;;;;;;6.72;6.05;;;;;;;;;;5013634;28;20199;-82
2023/04/20 09:54:50;;;;;;;8.73;7.43;;;;;;;;;;5014926;28;20208;-83
2023/04/20 09:57:20;;;;;;;8.05;7.25;;;;;;;;;;5017739;28;20286;-84
2023/04/20 09:59:48;;;;;;;8.32;6.55;;;;;;;;;;5024482;28;20305;-85
2023/04/20 10:02:15;;;;;;;6.88;6.00;;;;;;;;;;5037597;28;20258;-82
2023/04/20 10:04:54;;;;;;;7.57;6.07;;;;;;;;;;5016552;28;20225;-82
2023/04/20 10:07:26;;;;;;;7.97;5.85;;;;;;;;;;5015381;28;20555;-84
2023/04/20 10:10:09;;;;;;;7.13;6.43;;;;;;;;;;5026746;28;20214;-83
2023/04/20 10:12:49;;;;;;;7.03;6.05;;;;;;;;;;5036439;28;20417;-83
2023/04/20 10:15:17;;;;;;;6.40;5.80;;;;;;;;;;5036738;28;20244;-85
2023/04/20 10:17:45;;;;;;;8.63;7.75;;;;;;;;;;5034673;28;20607;-83
2023/04/20 10:20:22;;;;;;;9.80;6.65;;;;;;;;;;5018117;28;20207;-85
2023/04/20 10:22:51;;;;;;;8.07;7.15;;;;;;;;;;5016846;28;20293;-84
2023/04/20 10:25:20;;;;;;;7.25;6.55;;;;;;;;;;5016645;28;20294;-84
2023/04/20 10:27:57;;;;;;;7.82;7.03;;;;;;;;;;5015487;28;20237;-83
2023/04/20 10:30:26;;;;;;;6.22;5.63;;;;;;;;;;5015595;28;20241;-84
2023/04/20 10:33:05;;;;;;;7.40;6.65;;;;;;;;;;5015325;28;20206;-84
2023/04/20 10:35:44;;;;;;;6.47;5.55;;;;;;;;;;5015249;28;20651;-84
2023/04/20 10:38:12;;;;;;;6.55;5.90;;;;;;;;;;5015606;28;20313;-84
2023/04/20 10:40:40;;;;;;;6.28;5.68;;;;;;;;;;5016078;28;20209;-85
2023/04/20 10:43:21;;;;;;;6.43;5.82;;;;;;;;;;5015054;28;20285;-82
2023/04/20 10:45:49;;;;;;;6.00;5.40;;;;;;;;;;5015325;28;20203;-84
2023/04/20 10:48:16;;;;;;;5.75;5.10;;;;;;;;;;5014524;28;20289;-85
2023/04/20 10:50:44;;;;;;;9.15;6.07;;;;;;;;;;5014601;28;20226;-84
2023/04/20 10:53:22;;;;;;;6.05;5.45;;;;;;;;;;5012840;28;20202;-82
2023/04/20 10:55:59;;;;;;;6.82;5.93;;;;;;;;;;5013677;28;20570;-85
2023/04/20 10:58:28;;;;;;;6.40;5.13;;;;;;;;;;5014674;28;20222;-84
2023/04/20 11:01:01;;;;;;;7.05;6.00;;;;;;;;;;5016515;28;20209;-83
2023/04/20 11:03:30;;;;;;;6.85;6.25;;;;;;;;;;5021172;28;20217;-83
2023/04/20 11:06:00;;;;;;;7.50;6.45;;;;;;;;;;5022140;28;20267;-84
2023/04/20 11:08:38;;;;;;;6.57;6.00;;;;;;;;;;5017742;28;20219;-85
2023/04/20 11:11:06;;;;;;;8.20;6.75;;;;;;;;;;5018999;28;20206;-84
2023/04/20 11:13:34;;;;;;;6.65;5.97;;;;;;;;;;5017396;28;20207;-84
2023/04/20 11:16:11;;;;;;;6.30;5.57;;;;;;;;;;5016968;28;20290;-83
2023/04/20 11:18:50;;;;;;;8.35;7.35;;;;;;;;;;5018292;28;20253;-83
2023/04/20 11:21:18;;;;;;;7.50;6.72;;;;;;;;;;5018569;28;20238;-85
2023/04/20 11:23:46;;;;;;;6.35;5.72;;;;;;;;;;5016892;28;20209;-83
2023/04/20 11:26:13;;;;;;;5.65;5.15;;;;;;;;;;5024509;28;20226;-83
2023/04/20 11:28:53;;;;;;;6.13;5.47;;;;;;;;;;5031794;28;20673;-82
2023/04/20 11:31:21;;;;;;;5.75;5.22;;;;;;;;;;5033180;28;20203;-84
2023/04/20 11:33:49;;;;;;;5.70;5.20;;;;;;;;;;5032775;28;20227;-82
2023/04/20 11:36:21;;;;;;;4.88;4.47;;;;;;;;;;5031350;28;20214;-81
2023/04/20 11:38:48;;;;;;;5.18;4.78;;;;;;;;;;5032063;28;20727;-82
2023/04/20 11:41:17;;;;;;;5.65;4.93;;;;;;;;;;5024562;28;20203;-84
2023/04/20 11:43:44;;;;;;;5.30;4.80;;;;;;;;;;5024495;28;20233;-85
2023/04/20 11:46:18;;;;;;;5.20;4.80;;;;;;;;;;5022146;28;20737;-86
2023/04/20 11:48:47;;;;;;;5.95;5.35;;;;;;;;;;5045843;23;20709;-82
2023/04/20 11:51:15;;;;;;;4.53;4.13;;;;;;;;;;5036333;28;20198;-81
2023/04/20 11:53:43;;;;;;;4.32;3.92;;;;;;;;;;5036166;28;20202;-79
2023/04/20 11:56:10;;;;;;;4.70;4.30;;;;;;;;;;5035830;28;20256;-82
2023/04/20 11:58:37;;;;;;;6.97;4.43;;;;;;;;;;5029376;28;20235;-79
2023/04/20 12:01:05;;;;;;;5.88;4.75;;;;;;;;;;5016677;28;20227;-79
2023/04/20 12:03:34;;;;;;;6.05;5.13;;;;;;;;;;5016743;28;20286;-82
2023/04/20 12:06:02;;;;;;;4.85;4.40;;;;;;;;;;5016388;28;20579;-80
2023/04/20 12:08:30;;;;;;;5.82;5.30;;;;;;;;;;5016745;28;20238;-81
2023/04/20 12:10:57;;;;;;;5.10;4.60;;;;;;;;;;5016139;28;20209;-81
2023/04/20 12:13:25;;;;;;;5.15;4.75;;;;;;;;;;5014851;28;20293;-81
2023/04/20 12:15:52;;;;;;;5.20;4.70;;;;;;;;;;5016783;28;20265;-80
2023/04/20 12:18:20;;;;;;;4.78;4.38;;;;;;;;;;5015032;28;20230;-81
2023/04/20 12:20:49;;;;;;;4.85;4.45;;;;;;;;;;5015547;28;20233;-79
2023/04/20 12:23:17;;;;;;;4.32;3.92;;;;;;;;;;5014940;28;20245;-80
2023/04/20 12:25:44;;;;;;;5.13;4.63;;;;;;;;;;5014446;28;20305;-80
2023/04/20 12:28:11;;;;;;;5.07;4.57;;;;;;;;;;5014484;28;20759;-80
2023/04/20 12:30:39;;;;;;;4.32;3.92;;;;;;;;;;5014602;28;20203;-80
2023/04/20 12:33:07;;;;;;;3.83;3.45;;;;;;;;;;5013837;28;20203;-80
2023/04/20 12:35:34;;;;;;;3.60;3.30;;;;;;;;;;5025222;28;20585;-80
2023/04/20 12:38:03;;;;;;;3.70;3.40;;;;;;;;;;5034288;28;20218;-82
2023/04/20 12:40:30;;;;;;;3.05;2.85;;;;;;;;;;5034182;28;20208;-81
2023/04/20 12:42:58;;;;;;;4.20;3.80;;;;;;;;;;5034122;28;20206;-80
2023/04/20 12:45:25;;;;;;;3.60;3.05;;;;;;;;;;5034283;28;20316;-81
2023/04/20 12:47:53;;;;;;;4.25;3.85;;;;;;;;;;5003517;28;20210;-80
2023/04/20 12:50:20;;;;;;;3.97;3.05;;;;;;;;;;5013633;28;20215;-79
2023/04/20 12:52:48;;;;;;;4.03;3.03;;;;;;;;;;5014663;28;20210;-82
2023/04/20 12:55:17;;;;;;;5.65;3.38;;;;;;;;;;5014502;28;20206;-81
2023/04/20 12:57:45;;;;;;;4.18;2.95;;;;;;;;;;5013943;28;20219;-79
2023/04/20 13:00:13;;;;;;;3.15;2.95;;;;;;;;;;5014450;28;20738;-80
2023/04/20 13:02:41;;;;;;;3.63;3.33;;;;;;;;;;5014062;28;20253;-79
2023/04/20 13:05:09;;;;;;;3.45;3.20;;;;;;;;;;5014420;28;20203;-80
2023/04/20 13:07:37;;;;;;;3.22;2.92;;;;;;;;;;5014414;28;20195;-79
2023/04/20 13:10:05;;;;;;;4.47;3.47;;;;;;;;;;5014333;28;20755;-80
2023/04/20 13:12:34;;;;;;;3.60;3.30;;;;;;;;;;5013835;28;20209;-80
2023/04/20 13:15:02;;;;;;;3.38;3.08;;;;;;;;;;5014009;28;20234;-81
2023/04/20 13:17:30;;;;;;;4.07;3.75;;;;;;;;;;5001819;28;20223;-79
2023/04/20 13:19:57;;;;;;;4.43;3.83;;;;;;;;;;5010106;28;20319;-79
2023/04/20 13:22:25;;;;;;;4.43;4.03;;;;;;;;;;5014771;28;20241;-81
2023/04/20 13:24:52;;;;;;;3.40;3.10;;;;;;;;;;5014120;28;20213;-80
2023/04/20 13:27:20;;;;;;;3.22;2.90;;;;;;;;;;5014605;28;20297;-81
2023/04/20 13:29:48;;;;;;;3.17;2.97;;;;;;;;;;5013630;28;20310;-79
2023/04/20 13:32:16;;;;;;;3.40;3.08;;;;;;;;;;5014290;28;20298;-81
2023/04/20 13:34:43;;;;;;;3.38;3.08;;;;;;;;;;5015298;28;20290;-80
2023/04/20 13:37:11;;;;;;;3.58;3.30;;;;;;;;;;5013978;28;20290;-81
2023/04/20 13:39:39;;;;;;;3.45;3.15;;;;;;;;;;5013714;28;20229;-80
2023/04/20 13:42:07;;;;;;;3.20;3.00;;;;;;;;;;5016496;28;20259;-81
2023/04/20 13:44:35;;;;;;;6.22;3.05;;;;;;;;;;5016658;28;20209;-81
2023/04/20 13:47:04;;;;;;;3.20;2.97;;;;;;;;;;5015454;28;20217;-81
2023/04/20 13:49:31;;;;;;;3.60;3.30;;;;;;;;;;5015168;28;20231;-81
2023/04/20 13:51:59;;;;;;;4.20;3.80;;;;;;;;;;5015171;28;20298;-81
2023/04/20 13:54:26;;;;;;;2.78;2.58;;;;;;;;;;5016139;28;20289;-81
2023/04/20 13:56:53;;;;;;;2.90;2.70;;;;;;;;;;5016019;28;20893;-81
2023/04/20 13:59:21;;;;;;;3.22;2.97;;;;;;;;;;5015804;28;20237;-82
2023/04/20 14:01:48;;;;;;;3.58;3.28;;;;;;;;;;5014997;28;20597;-80
2023/04/20 14:04:17;;;;;;;3.08;2.88;;;;;;;;;;5014675;28;20207;-81
2023/04/20 14:06:45;;;;;;;3.72;3.42;;;;;;;;;;5014589;28;20209;-81
2023/04/20 14:09:12;;;;;;;4.43;3.67;;;;;;;;;;5014004;28;20314;-81
2023/04/20 14:11:39;;;;;;;4.22;3.92;;;;;;;;;;5014232;28;20210;-80
2023/04/20 14:14:07;;;;;;;3.63;3.33;;;;;;;;;;5013786;28;20213;-81
2023/04/20 14:16:43;;;;;;;3.85;3.55;;;;;;;;;;5010333;28;20286;-82
2023/04/20 14:19:11;;;;;;;3.40;3.10;;;;;;;;;;5003791;28;20241;-81
2023/04/20 14:21:42;;;;;;;3.92;3.63;;;;;;;;;;5014506;28;20207;-81
2023/04/20 14:24:11;;;;;;;3.78;3.47;;;;;;;;;;5015087;28;20210;-81
2023/04/20 14:26:38;;;;;;;4.00;3.70;;;;;;;;;;5013530;28;20203;-80
2023/04/20 14:29:06;;;;;;;3.70;3.40;;;;;;;;;;5014343;28;20233;-82
2023/04/20 14:31:34;;;;;;;3.45;3.20;;;;;;;;;;5013896;28;20195;-81
2023/04/20 14:34:02;;;;;;;3.35;3.05;;;;;;;;;;5013605;28;20196;-80
2023/04/20 14:36:29;;;;;;;3.00;2.80;;;;;;;;;;5012972;28;20298;-81
2023/04/20 14:38:58;;;;;;;3.75;3.22;;;;;;;;;;5014008;28;20322;-81
2023/04/20 14:41:26;;;;;;;3.80;3.53;;;;;;;;;;5019219;28;20235;-81
2023/04/20 14:43:53;;;;;;;3.15;2.95;;;;;;;;;;5024700;28;20267;-80
2023/04/20 14:46:20;;;;;;;3.80;3.50;;;;;;;;;;5022994;28;20317;-80
2023/04/20 14:48:48;;;;;;;4.25;3.95;;;;;;;;;;5013159;28;20322;-82
2023/04/20 14:51:17;;;;;;;3.30;3.00;;;;;;;;;;4995125;28;20208;-80